createdAt,value
2023-05-09T00:00:05.958Z,19083.2305
2023-05-09T00:01:07.357Z,19086.9238
2023-05-09T00:02:09.073Z,19084.6914
2023-05-09T00:03:10.713Z,19081.3848
2023-05-09T00:04:12.348Z,19080.0000
2023-05-09T00:05:14.219Z,19086.7695
2023-05-09T00:06:15.672Z,19084.5391
2023-05-09T00:07:17.241Z,19080.3086
2023-05-09T00:08:18.902Z,19081.0762
2023-05-09T00:09:20.596Z,19078.8457
2023-05-09T00:10:22.193Z,19082.0000
2023-05-09T00:11:23.833Z,19080.0762
2023-05-09T00:12:25.435Z,19085.3848
2023-05-09T00:13:27.121Z,19088.4609
2023-05-09T00:14:28.742Z,19080.7695
2023-05-09T00:15:30.464Z,19083.3848
2023-05-09T00:16:32.046Z,19083.8457
2023-05-09T00:17:33.723Z,19082.0762
2023-05-09T00:18:35.292Z,19085.7695
2023-05-09T00:19:36.928Z,19084.3848
2023-05-09T00:20:38.611Z,19079.4609
2023-05-09T00:21:40.237Z,19082.3848
2023-05-09T00:22:41.886Z,19080.6152
2023-05-09T00:23:43.534Z,19086.0000
2023-05-09T00:24:45.093Z,19084.5391
2023-05-09T00:25:46.792Z,19084.0762
2023-05-09T00:26:48.434Z,19083.1543
2023-05-09T00:27:50.062Z,19082.6152
2023-05-09T00:28:51.656Z,19086.7695
2023-05-09T00:29:53.321Z,19081.4609
2023-05-09T00:30:55.431Z,19083.0762
2023-05-09T00:31:56.638Z,19083.9238
2023-05-09T00:32:58.291Z,19087.6152
2023-05-09T00:33:59.913Z,19089.2305
2023-05-09T00:35:02.638Z,19088.7695
2023-05-09T00:36:03.448Z,19084.2305
2023-05-09T00:37:04.908Z,19090.3086
2023-05-09T00:38:06.582Z,19088.3086
2023-05-09T00:39:08.187Z,19088.2305
2023-05-09T00:40:09.870Z,19091.7695
2023-05-09T00:41:11.595Z,19089.6914
2023-05-09T00:42:13.172Z,19085.2305
2023-05-09T00:43:14.959Z,19091.0762
2023-05-09T00:44:16.546Z,19091.0000
2023-05-09T00:45:18.143Z,19088.6152
2023-05-09T00:46:19.697Z,19089.0000
2023-05-09T00:47:21.337Z,19090.2305
2023-05-09T00:48:22.970Z,19088.0000
2023-05-09T00:49:24.563Z,19087.7695
2023-05-09T00:50:26.247Z,19091.5391
2023-05-09T00:51:27.981Z,19089.8457
2023-05-09T00:52:29.542Z,19089.2305
2023-05-09T00:53:32.047Z,19090.4609
2023-05-09T00:54:32.799Z,19093.2305
2023-05-09T00:55:34.402Z,19092.0000
2023-05-09T00:56:36.070Z,19090.3086
2023-05-09T00:57:37.788Z,19089.4609
2023-05-09T00:58:39.370Z,19090.8457
2023-05-09T00:59:41.009Z,19090.0000
2023-05-09T01:00:42.653Z,19093.3086
2023-05-09T01:01:44.317Z,19096.2305
2023-05-09T01:02:46.181Z,19096.6914
2023-05-09T01:03:47.726Z,19095.3086
2023-05-09T01:04:49.195Z,19094.6152
2023-05-09T01:05:51.191Z,19094.6152
2023-05-09T01:06:52.482Z,19097.3848
2023-05-09T01:07:54.229Z,19092.7695
2023-05-09T01:08:55.739Z,19099.3086
2023-05-09T01:09:57.361Z,19098.5391
2023-05-09T01:11:00.107Z,19098.9238
2023-05-09T01:12:00.629Z,19098.7695
2023-05-09T01:13:02.282Z,19098.9238
2023-05-09T01:14:03.908Z,19099.2305
2023-05-09T01:15:05.485Z,19099.0762
2023-05-09T01:16:07.207Z,19098.8457
2023-05-09T01:17:08.782Z,19096.3086
2023-05-09T01:18:10.559Z,19096.5391
2023-05-09T01:19:12.093Z,19104.2305
2023-05-09T01:20:13.724Z,19102.0762
2023-05-09T01:21:15.311Z,19100.1543
2023-05-09T01:22:17.070Z,19100.2305
2023-05-09T01:23:18.663Z,19101.0762
2023-05-09T01:24:20.309Z,19103.4609
2023-05-09T01:25:21.880Z,19102.3848
2023-05-09T01:26:23.558Z,19104.0762
2023-05-09T01:27:25.179Z,19107.4609
2023-05-09T01:28:27.113Z,19107.9238
2023-05-09T01:29:28.425Z,19107.3848
2023-05-09T01:30:30.111Z,19106.8457
2023-05-09T01:31:31.768Z,19111.6152
2023-05-09T01:32:33.456Z,19110.8457
2023-05-09T01:33:35.003Z,19113.3848
2023-05-09T01:34:36.667Z,19112.3848
2023-05-09T01:35:38.304Z,19112.6914
2023-05-09T01:36:39.960Z,19111.6914
2023-05-09T01:37:41.606Z,19112.3848
2023-05-09T01:38:43.253Z,19113.4609
2023-05-09T01:39:44.821Z,19114.1543
2023-05-09T01:40:46.526Z,19116.3848
2023-05-09T01:41:48.095Z,19116.2305
2023-05-09T01:42:49.819Z,19119.9238
2023-05-09T01:43:51.482Z,19118.6152
2023-05-09T01:44:53.074Z,19122.3086
2023-05-09T01:45:54.731Z,19121.9238
2023-05-09T01:46:56.400Z,19120.7695
2023-05-09T01:47:58.007Z,19120.0000
2023-05-09T01:48:59.661Z,19119.5391
2023-05-09T01:50:01.256Z,19121.6914
2023-05-09T01:51:02.916Z,19121.3848
2023-05-09T01:52:04.558Z,19119.0762
2023-05-09T01:53:06.207Z,19121.0000
2023-05-09T01:54:07.902Z,19121.3086
2023-05-09T01:55:09.522Z,19121.2305
2023-05-09T01:56:11.135Z,19120.5391
2023-05-09T01:57:12.732Z,19125.0762
2023-05-09T01:58:14.413Z,19124.9238
2023-05-09T01:59:16.160Z,19127.5391
2023-05-09T02:00:18.136Z,19122.8457
2023-05-09T02:01:19.307Z,19126.9238
2023-05-09T02:02:20.949Z,19127.3848
2023-05-09T02:03:22.658Z,19126.3086
2023-05-09T02:04:24.604Z,19124.9238
2023-05-09T02:05:25.884Z,19127.0000
2023-05-09T02:06:27.453Z,19130.9238
2023-05-09T02:07:29.131Z,19131.4609
2023-05-09T02:08:30.838Z,19132.7695
2023-05-09T02:09:32.458Z,19132.5391
2023-05-09T02:10:34.084Z,19130.1543
2023-05-09T02:11:35.678Z,19133.0762
2023-05-09T02:12:37.319Z,19135.0762
2023-05-09T02:13:38.909Z,19132.2305
2023-05-09T02:14:40.613Z,19133.2305
2023-05-09T02:15:42.180Z,19132.9238
2023-05-09T02:16:43.971Z,19135.0762
2023-05-09T02:17:45.470Z,19139.6914
2023-05-09T02:18:47.121Z,19135.0000
2023-05-09T02:19:48.822Z,19136.0000
2023-05-09T02:20:50.489Z,19139.5391
2023-05-09T02:21:52.064Z,19134.3086
2023-05-09T02:22:53.709Z,19141.3848
2023-05-09T02:23:55.252Z,19137.4609
2023-05-09T02:24:57.000Z,19134.8457
2023-05-09T02:25:58.655Z,19140.2305
2023-05-09T02:27:00.222Z,19140.7695
2023-05-09T02:28:01.879Z,19137.3086
2023-05-09T02:29:03.470Z,19142.4609
2023-05-09T02:30:05.124Z,19143.4609
2023-05-09T02:31:06.809Z,19142.6152
2023-05-09T02:32:08.449Z,19140.6152
2023-05-09T02:33:10.046Z,19142.6152
2023-05-09T02:34:11.639Z,19143.0762
2023-05-09T02:35:13.620Z,19142.1543
2023-05-09T02:36:14.947Z,19145.9238
2023-05-09T02:37:16.601Z,19143.2305
2023-05-09T02:38:18.199Z,19143.4609
2023-05-09T02:39:19.909Z,19148.9238
2023-05-09T02:40:21.620Z,19147.4609
2023-05-09T02:41:23.180Z,19145.0762
2023-05-09T02:42:24.783Z,19145.6914
2023-05-09T02:43:26.449Z,19144.1543
2023-05-09T02:44:28.035Z,19144.3848
2023-05-09T02:45:29.784Z,19146.6152
2023-05-09T02:46:31.443Z,19146.0000
2023-05-09T02:47:33.052Z,19145.6914
2023-05-09T02:48:34.638Z,19145.0762
2023-05-09T02:49:36.307Z,19145.6914
2023-05-09T02:50:38.023Z,19147.8457
2023-05-09T02:51:40.112Z,19143.0000
2023-05-09T02:52:41.296Z,19146.2305
2023-05-09T02:53:42.845Z,19148.4609
2023-05-09T02:54:44.470Z,19146.4609
2023-05-09T02:55:46.170Z,19144.4609
2023-05-09T02:56:48.088Z,19139.6152
2023-05-09T02:57:53.993Z,19134.2305
2023-05-09T02:58:51.104Z,19134.1543
2023-05-09T02:59:52.704Z,19128.1543
2023-05-09T03:00:54.407Z,19124.4609
2023-05-09T03:01:56.070Z,19125.3848
2023-05-09T03:02:57.724Z,19122.6152
2023-05-09T03:03:59.277Z,19125.2305
2023-05-09T03:05:00.906Z,19122.3848
2023-05-09T03:06:02.581Z,19122.9238
2023-05-09T03:07:05.098Z,19124.6152
2023-05-09T03:08:05.912Z,19123.7695
2023-05-09T03:09:07.504Z,19126.3848
2023-05-09T03:10:09.089Z,19124.7695
2023-05-09T03:11:10.812Z,19126.3848
2023-05-09T03:12:12.416Z,19127.1543
2023-05-09T03:13:14.126Z,19126.6914
2023-05-09T03:14:15.656Z,19125.3086
2023-05-09T03:15:17.349Z,19127.3086
2023-05-09T03:16:18.911Z,19126.3848
2023-05-09T03:17:21.608Z,19127.4609
2023-05-09T03:18:22.228Z,19131.2305
2023-05-09T03:19:23.934Z,19127.2305
2023-05-09T03:20:25.484Z,19128.7695
2023-05-09T03:21:27.189Z,19125.0762
2023-05-09T03:22:28.822Z,19129.5391
2023-05-09T03:23:30.432Z,19125.2305
2023-05-09T03:24:32.098Z,19124.1543
2023-05-09T03:25:33.784Z,19127.5391
2023-05-09T03:26:35.380Z,19126.0000
2023-05-09T03:27:37.079Z,19124.6914
2023-05-09T03:28:38.605Z,19126.8457
2023-05-09T03:29:40.283Z,19124.0762
2023-05-09T03:30:41.907Z,19123.5391
2023-05-09T03:31:43.630Z,19128.7695
2023-05-09T03:32:45.285Z,19125.1543
2023-05-09T03:33:46.859Z,19119.4609
2023-05-09T03:34:48.532Z,19120.3848
2023-05-09T03:35:50.110Z,19121.6152
2023-05-09T03:36:51.793Z,19120.2305
2023-05-09T03:37:53.447Z,19121.7695
2023-05-09T03:38:55.034Z,19121.6152
2023-05-09T03:39:56.695Z,19121.2305
2023-05-09T03:40:59.237Z,19122.4609
2023-05-09T03:41:59.997Z,19122.6914
2023-05-09T03:43:01.637Z,19121.0762
2023-05-09T03:44:03.367Z,19119.6914
2023-05-09T03:45:04.839Z,19124.5391
2023-05-09T03:46:06.505Z,19123.5391
2023-05-09T03:47:08.143Z,19119.6914
2023-05-09T03:48:30.826Z,19118.0762
2023-05-09T03:49:11.447Z,19119.3340
2023-05-09T03:50:13.080Z,19118.4609
2023-05-09T03:51:14.698Z,19124.3848
2023-05-09T03:52:16.578Z,19125.6914
2023-05-09T03:53:18.000Z,19121.7695
2023-05-09T03:54:19.702Z,19121.9238
2023-05-09T03:55:21.368Z,19119.3086
2023-05-09T03:56:22.963Z,19123.3086
2023-05-09T03:57:25.116Z,19121.0762
2023-05-09T03:58:26.207Z,19122.6152
2023-05-09T03:59:28.593Z,19119.8457
2023-05-09T04:00:29.567Z,19119.5391
2023-05-09T04:01:31.154Z,19117.9238
2023-05-09T04:02:32.989Z,19118.8457
2023-05-09T04:03:34.481Z,19117.7695
2023-05-09T04:04:36.034Z,19120.0000
2023-05-09T04:05:37.699Z,19116.4609
2023-05-09T04:06:39.372Z,19115.2305
2023-05-09T04:07:41.101Z,19119.6152
2023-05-09T04:08:42.763Z,19112.6914
2023-05-09T04:09:44.337Z,19115.6152
2023-05-09T04:10:45.996Z,19117.2305
2023-05-09T04:11:47.649Z,19111.5391
2023-05-09T04:12:49.372Z,19112.6152
2023-05-09T04:13:50.920Z,19108.6152
2023-05-09T04:14:52.581Z,19111.1543
2023-05-09T04:15:54.206Z,19109.2305
2023-05-09T04:16:55.934Z,19106.3848
2023-05-09T04:17:57.560Z,19109.1543
2023-05-09T04:18:59.224Z,19104.7695
2023-05-09T04:20:00.742Z,19108.1543
2023-05-09T04:21:02.429Z,19104.9238
2023-05-09T04:22:04.018Z,19105.3848
2023-05-09T04:23:05.864Z,19102.9238
2023-05-09T04:24:07.398Z,19106.0762
2023-05-09T04:25:09.002Z,19104.5391
2023-05-09T04:26:10.694Z,19105.3848
2023-05-09T04:27:12.297Z,19103.3848
2023-05-09T04:28:13.970Z,19101.6914
2023-05-09T04:29:15.545Z,19098.7695
2023-05-09T04:30:17.190Z,19101.3848
2023-05-09T04:31:18.907Z,19100.9238
2023-05-09T04:32:20.550Z,19098.3848
2023-05-09T04:33:22.180Z,19092.9238
2023-05-09T04:34:23.758Z,19095.3086
2023-05-09T04:35:25.409Z,19094.6914
2023-05-09T04:36:27.062Z,19094.6152
2023-05-09T04:37:28.686Z,19092.0000
2023-05-09T04:38:30.404Z,19092.4609
2023-05-09T04:39:31.937Z,19092.6914
2023-05-09T04:40:33.715Z,19088.3086
2023-05-09T04:41:35.270Z,19091.6152
2023-05-09T04:42:36.976Z,19088.3848
2023-05-09T04:43:38.586Z,19087.5391
2023-05-09T04:44:40.294Z,19091.3848
2023-05-09T04:45:41.914Z,19086.3086
2023-05-09T04:46:43.644Z,19087.2305
2023-05-09T04:47:45.129Z,19088.5391
2023-05-09T04:48:47.206Z,19090.0762
2023-05-09T04:49:48.381Z,19084.4609
2023-05-09T04:50:50.054Z,19083.6152
2023-05-09T04:51:51.713Z,19085.1543
2023-05-09T04:52:53.321Z,19079.9238
2023-05-09T04:53:55.070Z,19077.5391
2023-05-09T04:54:57.105Z,19078.6914
2023-05-09T04:55:58.232Z,19075.2305
2023-05-09T04:57:09.819Z,19076.3848
2023-05-09T04:58:01.580Z,19066.3848
2023-05-09T04:59:04.211Z,19066.3848
2023-05-09T05:00:04.873Z,19068.9238
2023-05-09T05:01:06.544Z,19060.4609
2023-05-09T05:02:08.179Z,19060.6152
2023-05-09T05:03:09.744Z,19062.7695
2023-05-09T05:04:11.445Z,19058.1543
2023-05-09T05:05:13.038Z,19050.3086
2023-05-09T05:06:14.655Z,19048.4609
2023-05-09T05:07:16.343Z,19068.4609
2023-05-09T05:08:17.927Z,19072.2305
2023-05-09T05:09:19.585Z,19062.2305
2023-05-09T05:10:21.200Z,19057.1543
2023-05-09T05:11:22.923Z,19043.8457
2023-05-09T05:12:24.565Z,19051.8457
2023-05-09T05:13:26.184Z,19068.0762
2023-05-09T05:14:27.831Z,19064.6152
2023-05-09T05:15:29.569Z,19057.2305
2023-05-09T05:16:31.102Z,19042.5391
2023-05-09T05:17:32.710Z,19039.7695
2023-05-09T05:18:34.431Z,19051.0762
2023-05-09T05:19:36.048Z,19069.3848
2023-05-09T05:20:38.631Z,19059.5391
2023-05-09T05:21:39.323Z,19042.3848
2023-05-09T05:22:40.851Z,19037.4609
2023-05-09T05:23:42.460Z,19037.0000
2023-05-09T05:24:44.147Z,19050.8457
2023-05-09T05:25:45.789Z,19051.3086
2023-05-09T05:26:47.409Z,19046.0000
2023-05-09T05:27:49.024Z,19033.3086
2023-05-09T05:28:50.774Z,19031.8457
2023-05-09T05:29:52.371Z,19030.0762
2023-05-09T05:30:54.001Z,19049.6914
2023-05-09T05:31:55.776Z,19052.4609
2023-05-09T05:32:57.314Z,19036.6152
2023-05-09T05:33:59.935Z,19024.9238
2023-05-09T05:35:01.799Z,19018.0762
2023-05-09T05:36:02.352Z,19039.3086
2023-05-09T05:37:03.948Z,19052.0762
2023-05-09T05:38:05.622Z,19049.4609
2023-05-09T05:39:07.221Z,19023.6914
2023-05-09T05:40:08.869Z,19008.6914
2023-05-09T05:41:10.594Z,19015.8457
2023-05-09T05:42:12.092Z,19049.1543
2023-05-09T05:43:13.806Z,19055.6914
2023-05-09T05:44:15.505Z,19042.6152
2023-05-09T05:45:17.303Z,19012.3848
2023-05-09T05:46:18.828Z,19004.6914
2023-05-09T05:47:20.353Z,19025.1543
2023-05-09T05:48:21.960Z,19049.7695
2023-05-09T05:49:23.615Z,19040.8457
2023-05-09T05:50:25.253Z,19014.6914
2023-05-09T05:51:26.989Z,18995.9238
2023-05-09T05:52:28.529Z,19007.1543
2023-05-09T05:53:32.086Z,19041.1543
2023-05-09T05:54:31.800Z,19048.2305
2023-05-09T05:55:33.519Z,19031.6152
2023-05-09T05:56:35.126Z,18994.1543
2023-05-09T05:57:36.825Z,18994.3086
2023-05-09T05:58:38.361Z,19020.7695
2023-05-09T05:59:40.060Z,19038.5391
2023-05-09T06:00:41.731Z,19022.7695
2023-05-09T06:01:43.440Z,18999.3848
2023-05-09T06:02:45.112Z,18983.6914
2023-05-09T06:03:46.730Z,19012.0762
2023-05-09T06:04:48.260Z,19041.3848
2023-05-09T06:05:49.887Z,19027.0000
2023-05-09T06:06:52.201Z,19001.9238
2023-05-09T06:07:53.201Z,18980.0000
2023-05-09T06:08:54.823Z,19002.9238
2023-05-09T06:09:56.480Z,19024.8457
2023-05-09T06:10:58.145Z,19022.4609
2023-05-09T06:11:59.761Z,19005.5391
2023-05-09T06:13:01.441Z,18971.4609
2023-05-09T06:14:02.973Z,18969.0762
2023-05-09T06:15:04.682Z,18991.2305
2023-05-09T06:16:18.454Z,19004.5391
2023-05-09T06:17:08.124Z,18992.5391
2023-05-09T06:18:09.625Z,18979.5391
2023-05-09T06:19:11.313Z,18970.6152
2023-05-09T06:20:12.987Z,18981.0762
2023-05-09T06:21:14.589Z,19015.1543
2023-05-09T06:22:16.224Z,19011.4609
2023-05-09T06:23:17.860Z,18996.0000
2023-05-09T06:24:27.967Z,18972.1543
2023-05-09T06:25:21.158Z,18970.6914
2023-05-09T06:26:22.761Z,19008.5391
2023-05-09T06:27:24.389Z,19016.3086
2023-05-09T06:28:26.086Z,19007.6152
2023-05-09T06:29:27.597Z,18982.0762
2023-05-09T06:30:29.324Z,18960.5391
2023-05-09T06:31:31.067Z,18961.8457
2023-05-09T06:32:32.637Z,18975.1543
2023-05-09T06:33:34.188Z,18991.5391
2023-05-09T06:34:35.864Z,18977.3086
2023-05-09T06:35:37.521Z,18963.6152
2023-05-09T06:36:39.228Z,18956.6914
2023-05-09T06:37:40.802Z,18955.6152
2023-05-09T06:38:42.399Z,18976.2305
2023-05-09T06:39:44.104Z,19008.9238
2023-05-09T06:40:45.752Z,19002.3086
2023-05-09T06:41:47.414Z,18984.5391
2023-05-09T06:42:49.065Z,18962.1543
2023-05-09T06:43:50.518Z,18971.6914
2023-05-09T06:44:53.203Z,19012.4609
2023-05-09T06:45:53.811Z,19022.7695
2023-05-09T06:46:55.473Z,19000.5391
2023-05-09T06:47:57.135Z,18971.0000
2023-05-09T06:48:58.687Z,18962.6914
2023-05-09T06:50:00.405Z,19001.3086
2023-05-09T06:51:02.030Z,19008.3086
2023-05-09T06:52:03.695Z,19005.0762
2023-05-09T06:53:05.302Z,18980.6152
2023-05-09T06:54:07.024Z,18960.3086
2023-05-09T06:55:11.168Z,18957.4609
2023-05-09T06:56:10.187Z,18952.5391
2023-05-09T06:57:12.103Z,18959.9238
2023-05-09T06:58:13.618Z,18970.9238
2023-05-09T06:59:15.134Z,18977.6914
2023-05-09T07:00:16.822Z,18966.3086
2023-05-09T07:01:18.643Z,18955.4609
2023-05-09T07:02:20.175Z,18947.9238
2023-05-09T07:03:21.896Z,18955.5391
2023-05-09T07:04:23.500Z,18964.0000
2023-05-09T07:05:26.220Z,18955.2305
2023-05-09T07:06:26.761Z,18953.1543
2023-05-09T07:07:28.426Z,18958.1543
2023-05-09T07:08:30.090Z,18979.4609
2023-05-09T07:09:32.377Z,18976.7695
2023-05-09T07:10:33.322Z,18959.0762
2023-05-09T07:11:34.911Z,18942.1543
2023-05-09T07:12:36.665Z,18946.3086
2023-05-09T07:13:38.288Z,18976.6914
2023-05-09T07:14:39.836Z,19000.8457
2023-05-09T07:15:42.885Z,18992.9238
2023-05-09T07:16:43.325Z,18975.6152
2023-05-09T07:17:44.881Z,18959.3086
2023-05-09T07:18:46.483Z,18952.0762
2023-05-09T07:19:48.089Z,18963.6914
2023-05-09T07:20:49.726Z,18983.9238
2023-05-09T07:21:51.387Z,18976.3848
2023-05-09T07:22:53.974Z,18966.7695
2023-05-09T07:23:54.703Z,18950.9238
2023-05-09T07:24:56.266Z,18940.9238
2023-05-09T07:25:57.981Z,18952.3848
2023-05-09T07:26:59.637Z,18970.0762
2023-05-09T07:28:01.309Z,18967.7695
2023-05-09T07:29:02.886Z,18954.2305
2023-05-09T07:30:04.498Z,18949.7695
2023-05-09T07:31:06.142Z,18953.0762
2023-05-09T07:32:08.034Z,18977.2305
2023-05-09T07:33:09.431Z,18973.6152
2023-05-09T07:34:11.059Z,18959.8457
2023-05-09T07:35:13.024Z,18951.8457
2023-05-09T07:36:14.427Z,18952.9238
2023-05-09T07:37:16.929Z,18968.2305
2023-05-09T07:38:17.731Z,18969.3848
2023-05-09T07:39:20.222Z,18955.1543
2023-05-09T07:40:21.930Z,18945.7695
2023-05-09T07:41:22.489Z,18956.3086
2023-05-09T07:42:24.140Z,18972.6152
2023-05-09T07:43:25.844Z,18965.6152
2023-05-09T07:44:27.519Z,18953.0762
2023-05-09T07:45:29.145Z,18952.3086
2023-05-09T07:46:30.818Z,18972.2305
2023-05-09T07:47:32.381Z,18986.8457
2023-05-09T07:48:34.005Z,18979.3086
2023-05-09T07:49:35.610Z,18966.8457
2023-05-09T07:50:37.384Z,18958.3848
2023-05-09T07:51:38.902Z,18974.2305
2023-05-09T07:52:40.585Z,18991.6914
2023-05-09T07:53:42.137Z,18986.3086
2023-05-09T07:54:43.930Z,18978.0000
2023-05-09T07:55:45.555Z,18962.5391
2023-05-09T07:56:47.437Z,18951.1543
2023-05-09T07:57:48.725Z,18948.2305
2023-05-09T07:58:52.152Z,18968.1543
2023-05-09T07:59:52.031Z,18979.0000
2023-05-09T08:00:53.615Z,18960.1543
2023-05-09T08:01:55.349Z,18954.9238
2023-05-09T08:02:57.912Z,18945.5391
2023-05-09T08:03:59.401Z,18939.1543
2023-05-09T08:05:00.232Z,18939.1543
2023-05-09T08:06:02.241Z,18972.2305
2023-05-09T08:07:03.462Z,18972.8457
2023-05-09T08:08:05.162Z,18959.6914
2023-05-09T08:09:06.815Z,18943.5391
2023-05-09T08:10:08.517Z,18933.0762
2023-05-09T08:11:10.149Z,18965.4609
2023-05-09T08:12:11.724Z,18989.7695
2023-05-09T08:13:13.445Z,18985.4609
2023-05-09T08:14:15.734Z,18962.7695
2023-05-09T08:15:17.093Z,18949.3848
2023-05-09T08:16:18.386Z,18938.0762
2023-05-09T08:17:19.991Z,18980.3848
2023-05-09T08:18:21.630Z,18988.5391
2023-05-09T08:19:23.781Z,18975.6914
2023-05-09T08:20:25.295Z,18960.0762
2023-05-09T08:21:26.521Z,18940.5391
2023-05-09T08:22:28.200Z,18940.3086
2023-05-09T08:23:29.798Z,18960.4609
2023-05-09T08:24:31.582Z,18970.7695
2023-05-09T08:25:33.078Z,18963.2305
2023-05-09T08:26:34.818Z,18947.1543
2023-05-09T08:27:36.409Z,18938.2305
2023-05-09T08:28:38.007Z,18943.2305
2023-05-09T08:29:39.700Z,18976.9238
2023-05-09T08:30:41.356Z,18976.8457
2023-05-09T08:31:42.907Z,18966.2305
2023-05-09T08:32:44.649Z,18949.3086
2023-05-09T08:33:46.238Z,18936.5391
2023-05-09T08:34:47.910Z,18946.6914
2023-05-09T08:35:49.520Z,18983.5391
2023-05-09T08:36:51.241Z,18983.1543
2023-05-09T08:37:52.785Z,18973.0762
2023-05-09T08:38:54.472Z,18958.0000
2023-05-09T08:39:56.064Z,18925.4609
2023-05-09T08:40:57.768Z,18950.4609
2023-05-09T08:41:59.362Z,18972.4609
2023-05-09T08:43:00.986Z,18966.3086
2023-05-09T08:44:02.635Z,18954.6152
2023-05-09T08:45:04.285Z,18944.6914
2023-05-09T08:46:05.918Z,18925.8457
2023-05-09T08:47:07.565Z,18948.5391
2023-05-09T08:48:09.218Z,18973.6914
2023-05-09T08:49:10.880Z,18967.0762
2023-05-09T08:50:12.616Z,18953.1543
2023-05-09T08:51:14.104Z,18938.2305
2023-05-09T08:52:15.683Z,18929.3848
2023-05-09T08:53:17.407Z,18937.4609
2023-05-09T08:54:20.676Z,18961.1543
2023-05-09T08:55:20.790Z,18964.1543
2023-05-09T08:56:22.369Z,18953.7695
2023-05-09T08:57:24.068Z,18943.6152
2023-05-09T08:58:25.554Z,18937.8457
2023-05-09T08:59:27.298Z,18942.3086
2023-05-09T09:00:28.863Z,18963.0762
2023-05-09T09:01:30.482Z,18970.0000
2023-05-09T09:02:32.136Z,18966.9238
2023-05-09T09:03:33.723Z,18955.7695
2023-05-09T09:04:35.433Z,18945.7695
2023-05-09T09:05:41.758Z,18949.2305
2023-05-09T09:06:38.670Z,18978.3848
2023-05-09T09:07:40.346Z,18992.3086
2023-05-09T09:08:41.966Z,18983.7695
2023-05-09T09:09:43.638Z,18968.7695
2023-05-09T09:10:45.276Z,18951.0762
2023-05-09T09:11:46.816Z,18950.6152
2023-05-09T09:12:50.152Z,18980.6152
2023-05-09T09:13:50.185Z,18988.3848
2023-05-09T09:14:51.804Z,18977.5391
2023-05-09T09:15:53.454Z,18961.0762
2023-05-09T09:16:55.163Z,18952.2305
2023-05-09T09:17:56.773Z,18958.0000
2023-05-09T09:18:59.035Z,18980.5391
2023-05-09T09:20:00.021Z,18989.0762
2023-05-09T09:21:01.678Z,18980.5391
2023-05-09T09:22:03.359Z,18965.3848
2023-05-09T09:23:04.903Z,18955.3086
2023-05-09T09:24:06.543Z,18958.6152
2023-05-09T09:25:08.229Z,18978.6914
2023-05-09T09:26:09.862Z,18994.8457
2023-05-09T09:27:11.479Z,18988.7695
2023-05-09T09:28:13.033Z,18972.6914
2023-05-09T09:29:14.734Z,18962.6914
2023-05-09T09:30:16.530Z,18961.6152
2023-05-09T09:31:18.845Z,18986.4609
2023-05-09T09:32:20.369Z,18994.3086
2023-05-09T09:33:21.290Z,18990.6914
2023-05-09T09:34:22.946Z,18982.0762
2023-05-09T09:35:24.573Z,18963.0000
2023-05-09T09:36:26.280Z,18962.6914
2023-05-09T09:37:27.894Z,18987.0000
2023-05-09T09:38:29.480Z,18998.0762
2023-05-09T09:39:31.155Z,18991.9238
2023-05-09T09:40:32.759Z,18978.6152
2023-05-09T09:41:34.462Z,18970.0000
2023-05-09T09:42:36.765Z,18968.3848
2023-05-09T09:43:37.746Z,18991.7695
2023-05-09T09:44:39.366Z,18998.6914
2023-05-09T09:45:41.095Z,18993.6152
2023-05-09T09:46:42.626Z,18981.5391
2023-05-09T09:47:44.292Z,18968.2305
2023-05-09T09:48:45.917Z,18971.0000
2023-05-09T09:49:47.537Z,18989.3848
2023-05-09T09:50:49.065Z,19001.0762
2023-05-09T09:51:50.790Z,18994.6914
2023-05-09T09:52:52.365Z,18983.3086
2023-05-09T09:53:54.849Z,18973.2305
2023-05-09T09:54:55.700Z,18971.6152
2023-05-09T09:55:57.399Z,18994.8457
2023-05-09T09:56:58.948Z,18999.3086
2023-05-09T09:58:00.580Z,18991.9238
2023-05-09T09:59:02.185Z,18979.4609
2023-05-09T10:00:03.889Z,18976.2305
2023-05-09T10:01:06.371Z,18980.3086
2023-05-09T10:02:08.259Z,18996.3848
2023-05-09T10:03:08.848Z,19002.3086
2023-05-09T10:04:10.643Z,18990.8457
2023-05-09T10:05:12.275Z,18978.9238
2023-05-09T10:06:13.866Z,18970.4609
2023-05-09T10:07:18.987Z,18975.6152
2023-05-09T10:08:21.905Z,18996.6426
2023-05-09T10:09:23.529Z,19003.0762
2023-05-09T10:10:26.159Z,18995.3086
2023-05-09T10:11:26.755Z,18978.5391
2023-05-09T10:12:28.934Z,18972.3086
2023-05-09T10:13:30.260Z,18979.7695
2023-05-09T10:14:33.510Z,18993.4609
2023-05-09T10:15:41.403Z,19001.8457
2023-05-09T10:16:43.597Z,18994.4609
2023-05-09T10:17:36.823Z,18971.3086
2023-05-09T10:18:38.452Z,18967.3086
2023-05-09T10:19:39.900Z,18978.3086
2023-05-09T10:20:41.579Z,18994.2305
2023-05-09T10:21:43.267Z,18997.6152
2023-05-09T10:22:44.890Z,18983.3086
2023-05-09T10:23:46.448Z,18972.6152
2023-05-09T10:24:48.082Z,18970.2305
2023-05-09T10:25:50.462Z,18979.6152
2023-05-09T10:26:51.371Z,18998.6914
2023-05-09T10:27:53.111Z,19002.6152
2023-05-09T10:28:54.701Z,18990.7695
2023-05-09T10:29:56.960Z,18973.0000
2023-05-09T10:30:58.973Z,18970.6914
2023-05-09T10:31:59.549Z,18985.5391
2023-05-09T10:33:01.312Z,19001.5391
2023-05-09T10:34:02.936Z,19005.6152
2023-05-09T10:35:05.470Z,18987.6152
2023-05-09T10:36:06.270Z,18975.3086
2023-05-09T10:37:07.819Z,18971.3848
2023-05-09T10:38:09.462Z,18982.6152
2023-05-09T10:39:11.093Z,19001.2305
2023-05-09T10:40:12.793Z,18999.2305
2023-05-09T10:41:14.398Z,18986.1543
2023-05-09T10:42:16.068Z,18972.9238
2023-05-09T10:43:17.743Z,18973.8457
2023-05-09T10:44:19.342Z,18982.3848
2023-05-09T10:45:20.924Z,18999.2305
2023-05-09T10:46:22.607Z,18998.0762
2023-05-09T10:47:24.251Z,18985.4609
2023-05-09T10:48:25.848Z,18969.1543
2023-05-09T10:49:27.557Z,18974.3086
2023-05-09T10:50:30.084Z,18984.3848
2023-05-09T10:51:30.874Z,19001.8457
2023-05-09T10:52:32.478Z,18994.6152
2023-05-09T10:53:35.416Z,18982.9238
2023-05-09T10:54:35.695Z,18971.0000
2023-05-09T10:55:37.336Z,18973.4609
2023-05-09T10:56:38.967Z,18991.3086
2023-05-09T10:57:40.949Z,19004.6914
2023-05-09T10:58:42.309Z,18994.3086
2023-05-09T10:59:43.902Z,18982.0762
2023-05-09T11:00:45.548Z,18972.7695
2023-05-09T11:01:48.331Z,18971.1543
2023-05-09T11:02:48.778Z,18986.3086
2023-05-09T11:03:51.126Z,19001.3848
2023-05-09T11:04:52.085Z,18999.0762
2023-05-09T11:05:53.695Z,18982.0000
2023-05-09T11:06:57.144Z,18966.9238
2023-05-09T11:07:57.050Z,18975.6152
2023-05-09T11:08:58.659Z,18987.1543
2023-05-09T11:10:00.317Z,19001.8457
2023-05-09T11:11:01.914Z,18994.3848
2023-05-09T11:12:03.608Z,18986.3848
2023-05-09T11:13:05.220Z,18970.1543
2023-05-09T11:14:06.844Z,18971.3086
2023-05-09T11:15:08.499Z,18984.5391
2023-05-09T11:16:10.129Z,18999.9238
2023-05-09T11:17:11.791Z,18999.8457
2023-05-09T11:18:13.419Z,18989.2305
2023-05-09T11:19:15.134Z,18977.0762
2023-05-09T11:20:16.832Z,18970.4609
2023-05-09T11:21:18.312Z,18986.2305
2023-05-09T11:22:19.993Z,18998.3086
2023-05-09T11:23:21.630Z,19004.2305